sensor_id;sensor_type;location;lat;lon;timestamp;P1;durP1;ratioP1;P2;durP2;ratioP2
37645;SDS011;23489;49.600;6.138;2023-05-07T00:00:16;4.07;;;3.10;;
37645;SDS011;23489;49.600;6.138;2023-05-07T00:02:44;4.85;;;3.10;;
37645;SDS011;23489;49.600;6.138;2023-05-07T00:05:10;4.35;;;3.30;;
37645;SDS011;23489;49.600;6.138;2023-05-07T00:07:36;6.50;;;3.63;;
37645;SDS011;23489;49.600;6.138;2023-05-07T00:10:02;3.40;;;3.10;;
37645;SDS011;23489;49.600;6.138;2023-05-07T00:12:28;4.13;;;3.08;;
37645;SDS011;23489;49.600;6.138;2023-05-07T00:14:56;5.18;;;3.35;;
37645;SDS011;23489;49.600;6.138;2023-05-07T00:17:22;4.97;;;3.50;;
37645;SDS011;23489;49.600;6.138;2023-05-07T00:19:48;5.28;;;3.33;;
37645;SDS011;23489;49.600;6.138;2023-05-07T00:22:13;6.65;;;3.78;;
37645;SDS011;23489;49.600;6.138;2023-05-07T00:24:39;4.13;;;3.45;;
37645;SDS011;23489;49.600;6.138;2023-05-07T00:27:05;5.65;;;3.67;;
37645;SDS011;23489;49.600;6.138;2023-05-07T00:29:30;4.93;;;3.90;;
37645;SDS011;23489;49.600;6.138;2023-05-07T00:31:56;4.03;;;3.63;;
37645;SDS011;23489;49.600;6.138;2023-05-07T00:34:21;6.00;;;4.07;;
37645;SDS011;23489;49.600;6.138;2023-05-07T00:36:47;4.22;;;3.83;;
37645;SDS011;23489;49.600;6.138;2023-05-07T00:39:13;4.55;;;3.67;;
37645;SDS011;23489;49.600;6.138;2023-05-07T00:41:39;6.10;;;3.72;;
37645;SDS011;23489;49.600;6.138;2023-05-07T00:44:05;5.63;;;3.90;;
37645;SDS011;23489;49.600;6.138;2023-05-07T00:46:32;5.70;;;3.50;;
37645;SDS011;23489;49.600;6.138;2023-05-07T00:48:57;4.65;;;3.50;;
37645;SDS011;23489;49.600;6.138;2023-05-07T00:51:25;5.85;;;3.20;;
37645;SDS011;23489;49.600;6.138;2023-05-07T00:53:52;4.13;;;3.33;;
37645;SDS011;23489;49.600;6.138;2023-05-07T00:56:20;3.85;;;3.42;;
37645;SDS011;23489;49.600;6.138;2023-05-07T00:58:46;5.10;;;3.88;;
37645;SDS011;23489;49.600;6.138;2023-05-07T01:01:12;5.13;;;3.55;;
37645;SDS011;23489;49.600;6.138;2023-05-07T01:03:38;5.18;;;3.65;;
37645;SDS011;23489;49.600;6.138;2023-05-07T01:06:04;4.18;;;3.15;;
37645;SDS011;23489;49.600;6.138;2023-05-07T01:08:31;3.58;;;3.20;;
37645;SDS011;23489;49.600;6.138;2023-05-07T01:10:57;4.88;;;3.30;;
37645;SDS011;23489;49.600;6.138;2023-05-07T01:13:24;4.50;;;3.40;;
37645;SDS011;23489;49.600;6.138;2023-05-07T01:15:50;7.82;;;3.85;;
37645;SDS011;23489;49.600;6.138;2023-05-07T01:18:16;4.70;;;4.00;;
37645;SDS011;23489;49.600;6.138;2023-05-07T01:20:42;3.92;;;3.50;;
37645;SDS011;23489;49.600;6.138;2023-05-07T01:23:07;4.25;;;3.58;;
37645;SDS011;23489;49.600;6.138;2023-05-07T01:25:35;3.78;;;3.38;;
37645;SDS011;23489;49.600;6.138;2023-05-07T01:28:02;4.88;;;3.80;;
37645;SDS011;23489;49.600;6.138;2023-05-07T01:30:31;4.05;;;3.60;;
37645;SDS011;23489;49.600;6.138;2023-05-07T01:33:08;5.47;;;4.47;;
37645;SDS011;23489;49.600;6.138;2023-05-07T01:35:39;5.95;;;4.00;;
37645;SDS011;23489;49.600;6.138;2023-05-07T01:38:07;4.10;;;3.33;;
37645;SDS011;23489;49.600;6.138;2023-05-07T01:40:33;5.78;;;4.15;;
37645;SDS011;23489;49.600;6.138;2023-05-07T01:43:00;4.13;;;3.38;;
37645;SDS011;23489;49.600;6.138;2023-05-07T01:45:28;5.45;;;3.55;;
37645;SDS011;23489;49.600;6.138;2023-05-07T01:47:56;4.22;;;3.60;;
37645;SDS011;23489;49.600;6.138;2023-05-07T01:50:23;4.05;;;3.50;;
37645;SDS011;23489;49.600;6.138;2023-05-07T01:52:50;5.53;;;3.75;;
37645;SDS011;23489;49.600;6.138;2023-05-07T01:55:16;4.28;;;3.70;;
37645;SDS011;23489;49.600;6.138;2023-05-07T01:57:42;4.90;;;3.55;;
37645;SDS011;23489;49.600;6.138;2023-05-07T02:00:08;8.50;;;3.83;;
37645;SDS011;23489;49.600;6.138;2023-05-07T02:02:40;4.63;;;3.45;;
37645;SDS011;23489;49.600;6.138;2023-05-07T02:05:13;3.50;;;3.20;;
37645;SDS011;23489;49.600;6.138;2023-05-07T02:07:40;4.18;;;3.65;;
37645;SDS011;23489;49.600;6.138;2023-05-07T02:10:06;3.95;;;3.53;;
37645;SDS011;23489;49.600;6.138;2023-05-07T02:12:32;4.65;;;3.53;;
37645;SDS011;23489;49.600;6.138;2023-05-07T02:14:58;4.97;;;3.60;;
37645;SDS011;23489;49.600;6.138;2023-05-07T02:17:23;7.15;;;3.45;;
37645;SDS011;23489;49.600;6.138;2023-05-07T02:19:49;4.00;;;3.22;;
37645;SDS011;23489;49.600;6.138;2023-05-07T02:22:15;3.45;;;3.15;;
37645;SDS011;23489;49.600;6.138;2023-05-07T02:24:40;4.63;;;3.60;;
37645;SDS011;23489;49.600;6.138;2023-05-07T02:27:06;5.32;;;3.40;;
37645;SDS011;23489;49.600;6.138;2023-05-07T02:29:32;4.88;;;3.63;;
37645;SDS011;23489;49.600;6.138;2023-05-07T02:31:58;4.88;;;3.80;;
37645;SDS011;23489;49.600;6.138;2023-05-07T02:34:24;5.30;;;4.00;;
37645;SDS011;23489;49.600;6.138;2023-05-07T02:36:49;5.03;;;3.53;;
37645;SDS011;23489;49.600;6.138;2023-05-07T02:39:19;6.22;;;3.78;;
37645;SDS011;23489;49.600;6.138;2023-05-07T02:41:44;5.40;;;4.00;;
37645;SDS011;23489;49.600;6.138;2023-05-07T02:44:10;5.90;;;3.92;;
37645;SDS011;23489;49.600;6.138;2023-05-07T02:46:37;6.72;;;4.35;;
37645;SDS011;23489;49.600;6.138;2023-05-07T02:49:07;7.15;;;4.32;;
37645;SDS011;23489;49.600;6.138;2023-05-07T02:51:33;7.95;;;4.15;;
37645;SDS011;23489;49.600;6.138;2023-05-07T02:54:01;4.40;;;3.90;;
37645;SDS011;23489;49.600;6.138;2023-05-07T02:56:28;6.25;;;3.97;;
37645;SDS011;23489;49.600;6.138;2023-05-07T02:58:54;5.10;;;4.07;;
37645;SDS011;23489;49.600;6.138;2023-05-07T03:01:23;5.68;;;4.47;;
37645;SDS011;23489;49.600;6.138;2023-05-07T03:03:55;5.97;;;3.72;;
37645;SDS011;23489;49.600;6.138;2023-05-07T03:06:21;5.70;;;3.95;;
37645;SDS011;23489;49.600;6.138;2023-05-07T03:08:47;4.13;;;3.70;;
37645;SDS011;23489;49.600;6.138;2023-05-07T03:11:13;4.85;;;3.78;;
37645;SDS011;23489;49.600;6.138;2023-05-07T03:13:38;4.05;;;3.65;;
37645;SDS011;23489;49.600;6.138;2023-05-07T03:16:04;5.05;;;3.85;;
37645;SDS011;23489;49.600;6.138;2023-05-07T03:18:30;5.80;;;4.20;;
37645;SDS011;23489;49.600;6.138;2023-05-07T03:20:56;5.90;;;4.07;;
37645;SDS011;23489;49.600;6.138;2023-05-07T03:23:22;4.43;;;4.00;;
37645;SDS011;23489;49.600;6.138;2023-05-07T03:25:47;4.55;;;3.58;;
37645;SDS011;23489;49.600;6.138;2023-05-07T03:28:14;5.63;;;3.47;;
37645;SDS011;23489;49.600;6.138;2023-05-07T03:30:46;4.78;;;3.50;;
37645;SDS011;23489;49.600;6.138;2023-05-07T03:33:11;6.68;;;3.67;;
37645;SDS011;23489;49.600;6.138;2023-05-07T03:35:37;6.00;;;4.20;;
37645;SDS011;23489;49.600;6.138;2023-05-07T03:38:03;6.18;;;4.15;;
37645;SDS011;23489;49.600;6.138;2023-05-07T03:40:32;7.93;;;3.92;;
37645;SDS011;23489;49.600;6.138;2023-05-07T03:42:59;6.80;;;4.00;;
37645;SDS011;23489;49.600;6.138;2023-05-07T03:45:26;4.20;;;3.70;;
37645;SDS011;23489;49.600;6.138;2023-05-07T03:48:03;4.97;;;3.70;;
37645;SDS011;23489;49.600;6.138;2023-05-07T03:50:29;5.10;;;4.13;;
37645;SDS011;23489;49.600;6.138;2023-05-07T03:52:54;4.68;;;4.07;;
37645;SDS011;23489;49.600;6.138;2023-05-07T03:55:22;5.00;;;4.25;;
37645;SDS011;23489;49.600;6.138;2023-05-07T03:57:51;5.20;;;4.70;;
37645;SDS011;23489;49.600;6.138;2023-05-07T04:00:18;7.55;;;4.50;;
37645;SDS011;23489;49.600;6.138;2023-05-07T04:02:47;6.53;;;4.50;;
37645;SDS011;23489;49.600;6.138;2023-05-07T04:05:17;5.40;;;4.90;;
37645;SDS011;23489;49.600;6.138;2023-05-07T04:07:46;5.35;;;4.85;;
37645;SDS011;23489;49.600;6.138;2023-05-07T04:10:14;5.65;;;5.05;;
37645;SDS011;23489;49.600;6.138;2023-05-07T04:12:43;5.57;;;4.40;;
37645;SDS011;23489;49.600;6.138;2023-05-07T04:15:12;4.90;;;4.40;;
37645;SDS011;23489;49.600;6.138;2023-05-07T04:17:38;7.85;;;4.28;;
37645;SDS011;23489;49.600;6.138;2023-05-07T04:20:04;4.55;;;3.85;;
37645;SDS011;23489;49.600;6.138;2023-05-07T04:22:33;4.65;;;4.07;;
37645;SDS011;23489;49.600;6.138;2023-05-07T04:25:00;4.63;;;3.90;;
37645;SDS011;23489;49.600;6.138;2023-05-07T04:27:26;4.13;;;3.72;;
37645;SDS011;23489;49.600;6.138;2023-05-07T04:29:53;6.15;;;3.67;;
37645;SDS011;23489;49.600;6.138;2023-05-07T04:32:21;4.82;;;3.33;;
37645;SDS011;23489;49.600;6.138;2023-05-07T04:34:48;4.10;;;3.10;;
37645;SDS011;23489;49.600;6.138;2023-05-07T04:37:14;4.38;;;3.20;;
37645;SDS011;23489;49.600;6.138;2023-05-07T04:39:39;3.53;;;3.22;;
37645;SDS011;23489;49.600;6.138;2023-05-07T04:42:06;4.82;;;3.38;;
37645;SDS011;23489;49.600;6.138;2023-05-07T04:44:34;3.72;;;3.22;;
37645;SDS011;23489;49.600;6.138;2023-05-07T04:47:02;3.22;;;2.97;;
37645;SDS011;23489;49.600;6.138;2023-05-07T04:49:28;3.97;;;3.58;;
37645;SDS011;23489;49.600;6.138;2023-05-07T04:51:54;5.18;;;3.97;;
37645;SDS011;23489;49.600;6.138;2023-05-07T04:54:22;8.10;;;4.05;;
37645;SDS011;23489;49.600;6.138;2023-05-07T04:56:47;4.35;;;3.80;;
37645;SDS011;23489;49.600;6.138;2023-05-07T04:59:13;5.05;;;4.22;;
37645;SDS011;23489;49.600;6.138;2023-05-07T05:01:39;5.65;;;4.75;;
37645;SDS011;23489;49.600;6.138;2023-05-07T05:04:05;6.85;;;4.10;;
37645;SDS011;23489;49.600;6.138;2023-05-07T05:06:31;4.70;;;4.15;;
37645;SDS011;23489;49.600;6.138;2023-05-07T05:08:58;5.38;;;4.22;;
37645;SDS011;23489;49.600;6.138;2023-05-07T05:11:26;4.25;;;3.85;;
37645;SDS011;23489;49.600;6.138;2023-05-07T05:13:52;4.50;;;4.10;;
37645;SDS011;23489;49.600;6.138;2023-05-07T05:16:19;4.85;;;3.92;;
37645;SDS011;23489;49.600;6.138;2023-05-07T05:18:45;3.95;;;3.65;;
37645;SDS011;23489;49.600;6.138;2023-05-07T05:21:13;4.85;;;3.40;;
37645;SDS011;23489;49.600;6.138;2023-05-07T05:23:40;3.95;;;3.65;;
37645;SDS011;23489;49.600;6.138;2023-05-07T05:26:05;4.10;;;3.70;;
37645;SDS011;23489;49.600;6.138;2023-05-07T05:28:32;6.25;;;3.70;;
37645;SDS011;23489;49.600;6.138;2023-05-07T05:30:58;4.00;;;3.60;;
37645;SDS011;23489;49.600;6.138;2023-05-07T05:33:26;3.85;;;3.45;;
37645;SDS011;23489;49.600;6.138;2023-05-07T05:35:53;4.18;;;3.10;;
37645;SDS011;23489;49.600;6.138;2023-05-07T05:38:19;5.60;;;2.97;;
37645;SDS011;23489;49.600;6.138;2023-05-07T05:40:46;3.95;;;3.40;;
37645;SDS011;23489;49.600;6.138;2023-05-07T05:43:13;5.22;;;3.33;;
37645;SDS011;23489;49.600;6.138;2023-05-07T05:45:39;3.53;;;3.17;;
37645;SDS011;23489;49.600;6.138;2023-05-07T05:48:05;3.05;;;2.75;;
37645;SDS011;23489;49.600;6.138;2023-05-07T06:00:16;3.97;;;3.00;;
37645;SDS011;23489;49.600;6.138;2023-05-07T06:02:45;3.95;;;2.55;;
37645;SDS011;23489;49.600;6.138;2023-05-07T06:05:14;4.00;;;3.13;;
37645;SDS011;23489;49.600;6.138;2023-05-07T06:07:40;3.42;;;3.10;;
37645;SDS011;23489;49.600;6.138;2023-05-07T06:10:06;2.97;;;2.65;;
37645;SDS011;23489;49.600;6.138;2023-05-07T06:12:32;3.03;;;2.53;;
37645;SDS011;23489;49.600;6.138;2023-05-07T06:14:58;8.07;;;2.92;;
37645;SDS011;23489;49.600;6.138;2023-05-07T06:17:24;2.83;;;2.60;;
37645;SDS011;23489;49.600;6.138;2023-05-07T06:19:49;2.97;;;2.67;;
37645;SDS011;23489;49.600;6.138;2023-05-07T06:22:18;3.88;;;3.08;;
37645;SDS011;23489;49.600;6.138;2023-05-07T06:24:44;4.93;;;3.10;;
37645;SDS011;23489;49.600;6.138;2023-05-07T06:27:09;6.88;;;3.08;;
37645;SDS011;23489;49.600;6.138;2023-05-07T06:29:35;2.85;;;2.65;;
37645;SDS011;23489;49.600;6.138;2023-05-07T06:34:35;4.37;;;3.07;;
37645;SDS011;23489;49.600;6.138;2023-05-07T06:39:37;7.05;;;3.47;;
37645;SDS011;23489;49.600;6.138;2023-05-07T06:42:03;3.50;;;2.85;;
37645;SDS011;23489;49.600;6.138;2023-05-07T06:44:32;4.75;;;2.95;;
37645;SDS011;23489;49.600;6.138;2023-05-07T06:47:04;4.93;;;3.20;;
37645;SDS011;23489;49.600;6.138;2023-05-07T06:49:30;3.13;;;2.67;;
37645;SDS011;23489;49.600;6.138;2023-05-07T06:51:57;3.95;;;2.90;;
37645;SDS011;23489;49.600;6.138;2023-05-07T06:54:22;6.72;;;3.30;;
37645;SDS011;23489;49.600;6.138;2023-05-07T06:56:48;5.10;;;3.08;;
37645;SDS011;23489;49.600;6.138;2023-05-07T06:59:14;4.68;;;2.95;;
37645;SDS011;23489;49.600;6.138;2023-05-07T07:01:40;5.65;;;4.10;;
37645;SDS011;23489;49.600;6.138;2023-05-07T07:04:07;3.72;;;3.20;;
37645;SDS011;23489;49.600;6.138;2023-05-07T07:06:33;4.28;;;2.50;;
37645;SDS011;23489;49.600;6.138;2023-05-07T07:30:57;3.25;;;2.70;;
37645;SDS011;23489;49.600;6.138;2023-05-07T07:33:23;3.38;;;2.47;;
37645;SDS011;23489;49.600;6.138;2023-05-07T07:35:48;2.50;;;2.30;;
37645;SDS011;23489;49.600;6.138;2023-05-07T07:43:07;3.33;;;2.70;;
37645;SDS011;23489;49.600;6.138;2023-05-07T08:17:22;3.72;;;3.00;;
37645;SDS011;23489;49.600;6.138;2023-05-07T08:24:40;3.38;;;2.60;;
37645;SDS011;23489;49.600;6.138;2023-05-07T08:31:59;3.78;;;2.40;;
37645;SDS011;23489;49.600;6.138;2023-05-07T08:34:25;2.97;;;2.67;;
37645;SDS011;23489;49.600;6.138;2023-05-07T08:36:52;2.70;;;2.25;;
37645;SDS011;23489;49.600;6.138;2023-05-07T08:39:21;3.95;;;2.53;;
37645;SDS011;23489;49.600;6.138;2023-05-07T08:41:49;4.93;;;2.50;;
37645;SDS011;23489;49.600;6.138;2023-05-07T08:44:20;3.38;;;2.55;;
37645;SDS011;23489;49.600;6.138;2023-05-07T08:46:48;3.33;;;2.30;;
37645;SDS011;23489;49.600;6.138;2023-05-07T08:49:20;4.05;;;2.47;;
37645;SDS011;23489;49.600;6.138;2023-05-07T08:51:45;3.75;;;2.38;;
37645;SDS011;23489;49.600;6.138;2023-05-07T08:54:15;3.17;;;2.38;;
37645;SDS011;23489;49.600;6.138;2023-05-07T08:56:41;2.95;;;2.13;;
37645;SDS011;23489;49.600;6.138;2023-05-07T08:59:07;3.22;;;2.10;;
37645;SDS011;23489;49.600;6.138;2023-05-07T09:01:33;2.70;;;2.47;;
37645;SDS011;23489;49.600;6.138;2023-05-07T09:04:01;2.75;;;2.28;;
37645;SDS011;23489;49.600;6.138;2023-05-07T09:06:28;3.67;;;2.15;;
37645;SDS011;23489;49.600;6.138;2023-05-07T09:08:55;2.75;;;2.22;;
37645;SDS011;23489;49.600;6.138;2023-05-07T09:11:26;2.92;;;2.00;;
37645;SDS011;23489;49.600;6.138;2023-05-07T09:13:55;5.65;;;2.65;;
37645;SDS011;23489;49.600;6.138;2023-05-07T09:16:24;3.45;;;2.45;;
37645;SDS011;23489;49.600;6.138;2023-05-07T09:18:51;2.15;;;1.92;;
37645;SDS011;23489;49.600;6.138;2023-05-07T09:21:18;2.45;;;2.08;;
37645;SDS011;23489;49.600;6.138;2023-05-07T09:23:48;3.33;;;2.42;;
37645;SDS011;23489;49.600;6.138;2023-05-07T09:26:15;3.00;;;2.10;;
37645;SDS011;23489;49.600;6.138;2023-05-07T09:28:42;2.10;;;1.90;;
37645;SDS011;23489;49.600;6.138;2023-05-07T09:31:12;3.38;;;2.08;;
37645;SDS011;23489;49.600;6.138;2023-05-07T09:33:39;2.40;;;1.92;;
37645;SDS011;23489;49.600;6.138;2023-05-07T09:36:07;3.08;;;2.20;;
37645;SDS011;23489;49.600;6.138;2023-05-07T09:38:36;2.60;;;2.10;;
37645;SDS011;23489;49.600;6.138;2023-05-07T09:41:04;2.40;;;2.03;;
37645;SDS011;23489;49.600;6.138;2023-05-07T09:43:36;2.72;;;2.53;;
37645;SDS011;23489;49.600;6.138;2023-05-07T09:46:11;2.80;;;2.30;;
37645;SDS011;23489;49.600;6.138;2023-05-07T09:48:41;3.38;;;2.40;;
37645;SDS011;23489;49.600;6.138;2023-05-07T09:51:51;3.17;;;2.17;;
37645;SDS011;23489;49.600;6.138;2023-05-07T09:54:06;2.92;;;2.60;;
37645;SDS011;23489;49.600;6.138;2023-05-07T09:56:35;2.92;;;2.20;;
37645;SDS011;23489;49.600;6.138;2023-05-07T09:59:03;3.40;;;2.38;;
37645;SDS011;23489;49.600;6.138;2023-05-07T10:01:32;3.10;;;2.80;;
37645;SDS011;23489;49.600;6.138;2023-05-07T10:04:01;3.78;;;2.83;;
37645;SDS011;23489;49.600;6.138;2023-05-07T10:06:29;5.43;;;2.88;;
37645;SDS011;23489;49.600;6.138;2023-05-07T10:08:56;3.05;;;2.35;;
37645;SDS011;23489;49.600;6.138;2023-05-07T10:11:22;2.78;;;2.30;;
37645;SDS011;23489;49.600;6.138;2023-05-07T10:13:48;3.83;;;2.53;;
37645;SDS011;23489;49.600;6.138;2023-05-07T10:16:17;2.58;;;2.38;;
37645;SDS011;23489;49.600;6.138;2023-05-07T10:18:46;4.13;;;2.72;;
37645;SDS011;23489;49.600;6.138;2023-05-07T10:23:45;3.10;;;2.80;;
37645;SDS011;23489;49.600;6.138;2023-05-07T10:33:48;4.13;;;2.20;;
37645;SDS011;23489;49.600;6.138;2023-05-07T10:36:19;3.42;;;2.80;;
37645;SDS011;23489;49.600;6.138;2023-05-07T10:38:46;3.10;;;2.75;;
37645;SDS011;23489;49.600;6.138;2023-05-07T10:41:14;3.70;;;2.47;;
37645;SDS011;23489;49.600;6.138;2023-05-07T10:43:43;4.03;;;2.60;;
37645;SDS011;23489;49.600;6.138;2023-05-07T10:51:35;4.10;;;3.08;;
37645;SDS011;23489;49.600;6.138;2023-05-07T10:56:47;4.72;;;3.10;;
37645;SDS011;23489;49.600;6.138;2023-05-07T11:01:50;3.72;;;2.97;;
37645;SDS011;23489;49.600;6.138;2023-05-07T11:04:23;3.40;;;3.10;;
37645;SDS011;23489;49.600;6.138;2023-05-07T11:15:14;4.32;;;2.60;;
37645;SDS011;23489;49.600;6.138;2023-05-07T11:17:57;3.10;;;2.80;;
37645;SDS011;23489;49.600;6.138;2023-05-07T11:26:26;4.38;;;3.05;;
37645;SDS011;23489;49.600;6.138;2023-05-07T11:28:53;3.42;;;3.13;;
37645;SDS011;23489;49.600;6.138;2023-05-07T11:31:25;3.58;;;2.92;;
37645;SDS011;23489;49.600;6.138;2023-05-07T11:33:54;3.95;;;3.00;;
37645;SDS011;23489;49.600;6.138;2023-05-07T11:36:22;6.15;;;3.30;;
37645;SDS011;23489;49.600;6.138;2023-05-07T11:38:50;4.47;;;3.25;;
37645;SDS011;23489;49.600;6.138;2023-05-07T11:41:16;4.47;;;2.97;;
37645;SDS011;23489;49.600;6.138;2023-05-07T11:43:55;3.75;;;3.33;;
37645;SDS011;23489;49.600;6.138;2023-05-07T11:46:21;4.07;;;3.30;;
37645;SDS011;23489;49.600;6.138;2023-05-07T11:48:47;4.53;;;3.30;;
37645;SDS011;23489;49.600;6.138;2023-05-07T11:51:13;4.55;;;3.22;;
37645;SDS011;23489;49.600;6.138;2023-05-07T11:53:44;4.13;;;3.00;;
37645;SDS011;23489;49.600;6.138;2023-05-07T11:56:11;3.15;;;2.70;;
37645;SDS011;23489;49.600;6.138;2023-05-07T11:58:39;4.40;;;3.40;;
37645;SDS011;23489;49.600;6.138;2023-05-07T12:01:07;4.03;;;3.00;;
37645;SDS011;23489;49.600;6.138;2023-05-07T12:03:34;4.93;;;3.60;;
37645;SDS011;23489;49.600;6.138;2023-05-07T12:06:02;4.30;;;2.83;;
37645;SDS011;23489;49.600;6.138;2023-05-07T12:08:30;5.60;;;3.03;;
37645;SDS011;23489;49.600;6.138;2023-05-07T12:10:55;4.43;;;3.17;;
37645;SDS011;23489;49.600;6.138;2023-05-07T12:13:22;3.37;;;2.97;;
37645;SDS011;23489;49.600;6.138;2023-05-07T12:15:53;3.85;;;3.00;;
37645;SDS011;23489;49.600;6.138;2023-05-07T12:18:20;3.85;;;3.45;;
37645;SDS011;23489;49.600;6.138;2023-05-07T12:20:46;4.13;;;3.30;;
37645;SDS011;23489;49.600;6.138;2023-05-07T12:23:13;3.53;;;3.08;;
37645;SDS011;23489;49.600;6.138;2023-05-07T12:25:40;3.78;;;3.15;;
37645;SDS011;23489;49.600;6.138;2023-05-07T12:28:18;3.63;;;3.20;;
37645;SDS011;23489;49.600;6.138;2023-05-07T12:30:45;4.03;;;3.30;;
37645;SDS011;23489;49.600;6.138;2023-05-07T12:33:11;4.03;;;3.58;;
37645;SDS011;23489;49.600;6.138;2023-05-07T12:35:41;3.63;;;3.33;;
37645;SDS011;23489;49.600;6.138;2023-05-07T12:38:07;4.15;;;3.45;;
37645;SDS011;23489;49.600;6.138;2023-05-07T12:40:38;3.85;;;3.17;;
37645;SDS011;23489;49.600;6.138;2023-05-07T12:43:05;3.63;;;3.08;;
37645;SDS011;23489;49.600;6.138;2023-05-07T12:45:31;4.32;;;3.25;;
37645;SDS011;23489;49.600;6.138;2023-05-07T12:47:57;4.27;;;3.30;;
37645;SDS011;23489;49.600;6.138;2023-05-07T12:50:30;4.28;;;3.60;;
37645;SDS011;23489;49.600;6.138;2023-05-07T12:52:56;3.65;;;3.13;;
37645;SDS011;23489;49.600;6.138;2023-05-07T12:55:22;4.35;;;3.40;;
37645;SDS011;23489;49.600;6.138;2023-05-07T12:57:48;3.80;;;3.30;;
37645;SDS011;23489;49.600;6.138;2023-05-07T13:00:15;4.10;;;3.28;;
37645;SDS011;23489;49.600;6.138;2023-05-07T13:02:41;4.97;;;3.58;;
37645;SDS011;23489;49.600;6.138;2023-05-07T13:05:11;6.10;;;3.72;;
37645;SDS011;23489;49.600;6.138;2023-05-07T13:07:36;4.33;;;3.80;;
37645;SDS011;23489;49.600;6.138;2023-05-07T13:10:02;4.23;;;3.80;;
37645;SDS011;23489;49.600;6.138;2023-05-07T13:12:29;5.32;;;3.80;;
37645;SDS011;23489;49.600;6.138;2023-05-07T13:14:55;4.03;;;3.60;;
37645;SDS011;23489;49.600;6.138;2023-05-07T13:17:20;5.77;;;3.60;;
37645;SDS011;23489;49.600;6.138;2023-05-07T13:19:46;5.47;;;3.77;;
37645;SDS011;23489;49.600;6.138;2023-05-07T13:22:11;5.00;;;3.23;;
37645;SDS011;23489;49.600;6.138;2023-05-07T13:24:37;3.70;;;3.30;;
37645;SDS011;23489;49.600;6.138;2023-05-07T13:27:03;4.18;;;3.30;;
37645;SDS011;23489;49.600;6.138;2023-05-07T13:29:29;4.53;;;3.50;;
37645;SDS011;23489;49.600;6.138;2023-05-07T13:31:58;4.85;;;3.70;;
37645;SDS011;23489;49.600;6.138;2023-05-07T13:34:25;5.85;;;3.53;;
37645;SDS011;23489;49.600;6.138;2023-05-07T13:36:50;4.20;;;3.27;;
37645;SDS011;23489;49.600;6.138;2023-05-07T13:39:16;4.57;;;3.60;;
37645;SDS011;23489;49.600;6.138;2023-05-07T13:41:41;3.90;;;3.50;;
37645;SDS011;23489;49.600;6.138;2023-05-07T13:44:07;3.95;;;3.55;;
37645;SDS011;23489;49.600;6.138;2023-05-07T13:46:33;4.27;;;3.40;;
37645;SDS011;23489;49.600;6.138;2023-05-07T13:48:59;3.83;;;3.10;;
37645;SDS011;23489;49.600;6.138;2023-05-07T13:51:24;4.20;;;3.50;;
37645;SDS011;23489;49.600;6.138;2023-05-07T13:53:50;4.72;;;3.58;;
37645;SDS011;23489;49.600;6.138;2023-05-07T13:56:17;5.25;;;3.63;;
37645;SDS011;23489;49.600;6.138;2023-05-07T13:58:43;4.80;;;3.73;;
37645;SDS011;23489;49.600;6.138;2023-05-07T14:01:08;4.43;;;3.50;;
37645;SDS011;23489;49.600;6.138;2023-05-07T14:03:34;4.43;;;3.50;;
37645;SDS011;23489;49.600;6.138;2023-05-07T14:06:03;5.43;;;4.03;;
37645;SDS011;23489;49.600;6.138;2023-05-07T14:08:28;5.18;;;3.42;;
37645;SDS011;23489;49.600;6.138;2023-05-07T14:10:54;5.20;;;3.53;;
37645;SDS011;23489;49.600;6.138;2023-05-07T14:13:20;4.10;;;3.30;;
37645;SDS011;23489;49.600;6.138;2023-05-07T14:15:46;4.78;;;3.30;;
37645;SDS011;23489;49.600;6.138;2023-05-07T14:18:13;5.22;;;3.45;;
37645;SDS011;23489;49.600;6.138;2023-05-07T14:20:39;3.80;;;3.40;;
37645;SDS011;23489;49.600;6.138;2023-05-07T14:23:04;3.92;;;3.08;;
37645;SDS011;23489;49.600;6.138;2023-05-07T14:25:30;4.00;;;3.60;;
37645;SDS011;23489;49.600;6.138;2023-05-07T14:27:55;4.53;;;3.40;;
37645;SDS011;23489;49.600;6.138;2023-05-07T14:30:21;4.47;;;3.70;;
37645;SDS011;23489;49.600;6.138;2023-05-07T14:32:49;5.05;;;3.47;;
37645;SDS011;23489;49.600;6.138;2023-05-07T14:35:15;5.53;;;3.20;;
37645;SDS011;23489;49.600;6.138;2023-05-07T14:37:41;3.75;;;3.30;;
37645;SDS011;23489;49.600;6.138;2023-05-07T14:40:07;3.90;;;3.50;;
37645;SDS011;23489;49.600;6.138;2023-05-07T14:42:33;4.20;;;3.40;;
37645;SDS011;23489;49.600;6.138;2023-05-07T14:44:59;5.77;;;3.80;;
37645;SDS011;23489;49.600;6.138;2023-05-07T14:47:25;4.20;;;3.30;;
37645;SDS011;23489;49.600;6.138;2023-05-07T14:49:50;4.87;;;3.47;;
37645;SDS011;23489;49.600;6.138;2023-05-07T14:52:16;5.40;;;3.45;;
37645;SDS011;23489;49.600;6.138;2023-05-07T14:54:42;4.50;;;3.40;;
37645;SDS011;23489;49.600;6.138;2023-05-07T14:57:08;3.90;;;3.50;;
37645;SDS011;23489;49.600;6.138;2023-05-07T14:59:35;4.25;;;3.30;;
37645;SDS011;23489;49.600;6.138;2023-05-07T15:02:01;4.65;;;3.42;;
37645;SDS011;23489;49.600;6.138;2023-05-07T15:04:26;4.83;;;3.40;;
37645;SDS011;23489;49.600;6.138;2023-05-07T15:06:52;4.35;;;3.60;;
37645;SDS011;23489;49.600;6.138;2023-05-07T15:09:21;4.30;;;3.15;;
37645;SDS011;23489;49.600;6.138;2023-05-07T15:11:46;6.85;;;3.35;;
37645;SDS011;23489;49.600;6.138;2023-05-07T15:14:12;6.67;;;3.67;;
37645;SDS011;23489;49.600;6.138;2023-05-07T15:16:37;4.30;;;3.60;;
37645;SDS011;23489;49.600;6.138;2023-05-07T15:19:03;3.77;;;3.20;;
37645;SDS011;23489;49.600;6.138;2023-05-07T15:21:29;4.73;;;3.30;;
37645;SDS011;23489;49.600;6.138;2023-05-07T15:23:55;5.32;;;3.33;;
37645;SDS011;23489;49.600;6.138;2023-05-07T15:26:21;3.35;;;2.97;;
37645;SDS011;23489;49.600;6.138;2023-05-07T15:28:47;4.05;;;3.30;;
37645;SDS011;23489;49.600;6.138;2023-05-07T15:31:12;6.53;;;5.93;;
37645;SDS011;23489;49.600;6.138;2023-05-07T15:33:38;5.77;;;4.43;;
37645;SDS011;23489;49.600;6.138;2023-05-07T15:36:04;4.83;;;3.40;;
37645;SDS011;23489;49.600;6.138;2023-05-07T15:38:30;4.85;;;3.90;;
37645;SDS011;23489;49.600;6.138;2023-05-07T15:40:56;4.32;;;3.75;;
37645;SDS011;23489;49.600;6.138;2023-05-07T15:43:22;5.20;;;4.20;;
37645;SDS011;23489;49.600;6.138;2023-05-07T15:45:47;4.30;;;3.60;;
37645;SDS011;23489;49.600;6.138;2023-05-07T15:48:13;4.30;;;3.90;;
37645;SDS011;23489;49.600;6.138;2023-05-07T15:50:39;4.40;;;3.37;;
37645;SDS011;23489;49.600;6.138;2023-05-07T15:53:04;3.92;;;3.50;;
37645;SDS011;23489;49.600;6.138;2023-05-07T15:55:30;5.00;;;3.63;;
37645;SDS011;23489;49.600;6.138;2023-05-07T15:57:56;4.50;;;3.50;;
37645;SDS011;23489;49.600;6.138;2023-05-07T16:00:22;5.00;;;3.55;;
37645;SDS011;23489;49.600;6.138;2023-05-07T16:02:51;4.57;;;3.70;;
37645;SDS011;23489;49.600;6.138;2023-05-07T16:05:16;4.93;;;3.80;;
37645;SDS011;23489;49.600;6.138;2023-05-07T16:07:42;5.33;;;4.03;;
37645;SDS011;23489;49.600;6.138;2023-05-07T16:10:08;7.35;;;4.10;;
37645;SDS011;23489;49.600;6.138;2023-05-07T16:12:35;5.65;;;3.78;;
37645;SDS011;23489;49.600;6.138;2023-05-07T16:15:00;4.77;;;3.90;;
37645;SDS011;23489;49.600;6.138;2023-05-07T16:17:26;5.88;;;3.85;;
37645;SDS011;23489;49.600;6.138;2023-05-07T16:19:52;5.82;;;3.75;;
37645;SDS011;23489;49.600;6.138;2023-05-07T16:22:17;5.45;;;4.18;;
37645;SDS011;23489;49.600;6.138;2023-05-07T16:24:43;3.75;;;3.42;;
37645;SDS011;23489;49.600;6.138;2023-05-07T16:27:09;5.28;;;3.88;;
37645;SDS011;23489;49.600;6.138;2023-05-07T16:29:34;6.80;;;4.30;;
37645;SDS011;23489;49.600;6.138;2023-05-07T16:32:00;7.30;;;4.10;;
37645;SDS011;23489;49.600;6.138;2023-05-07T16:34:26;12.30;;;5.63;;
37645;SDS011;23489;49.600;6.138;2023-05-07T16:36:51;6.43;;;4.28;;
37645;SDS011;23489;49.600;6.138;2023-05-07T16:39:17;8.20;;;4.40;;
37645;SDS011;23489;49.600;6.138;2023-05-07T16:41:43;7.07;;;4.45;;
37645;SDS011;23489;49.600;6.138;2023-05-07T16:44:12;10.30;;;4.78;;